Time;durP1;ratioP1;P1;durP2;ratioP2;P2;SDS_P1;SDS_P2;PMS_P1;PMS_P2;Temp;Humidity;BMP_temperature;BMP_pressure;BME280_temperature;BME280_humidity;BME280_pressure;Samples;Min_cycle;Max_cycle;Signal;HPM_P1;HPM_P2
2022/03/27 00:01:37;;;;;;;14.13;6.13;;;9.10;63.20;;;;;;5046248;28;20024;-77
2022/03/27 00:04:02;;;;;;;20.85;6.35;;;9.10;62.90;;;;;;5048882;28;20021;-78
2022/03/27 00:06:28;;;;;;;18.80;6.45;;;9.00;63.10;;;;;;5050864;28;20017;-77
2022/03/27 00:08:54;;;;;;;16.33;6.78;;;9.00;63.80;;;;;;5053238;28;20501;-78
2022/03/27 00:11:29;;;;;;;16.23;7.03;;;9.00;64.60;;;;;;5053637;28;20048;-77
2022/03/27 00:14:00;;;;;;;16.17;7.10;;;8.90;64.70;;;;;;5053086;28;20029;-77
2022/03/27 00:16:26;;;;;;;18.17;6.50;;;9.00;64.40;;;;;;5053465;28;20020;-77
2022/03/27 00:18:52;;;;;;;15.73;6.45;;;9.00;64.70;;;;;;5054723;28;20343;-79
2022/03/27 00:21:19;;;;;;;21.23;7.80;;;8.90;64.90;;;;;;5074613;28;20454;-77
2022/03/27 00:23:44;;;;;;;14.68;7.20;;;8.90;65.20;;;;;;5074525;28;20013;-77
2022/03/27 00:26:10;;;;;;;14.90;7.28;;;8.80;65.40;;;;;;5073765;28;20027;-77
2022/03/27 00:28:36;;;;;;;18.30;7.15;;;8.80;65.70;;;;;;5056724;28;20021;-77
2022/03/27 00:31:05;;;;;;;18.45;6.55;;;8.70;66.30;;;;;;5056165;28;20027;-77
2022/03/27 00:33:32;;;;;;;14.50;6.28;;;8.70;67.00;;;;;;5056760;28;20047;-77
2022/03/27 00:35:59;;;;;;;18.88;7.15;;;8.70;67.60;;;;;;5056152;28;20036;-77
2022/03/27 00:38:28;;;;;;;19.73;7.22;;;8.60;68.20;;;;;;5074593;28;20020;-77
2022/03/27 00:40:55;;;;;;;17.73;7.55;;;8.60;68.30;;;;;;5073932;28;20016;-77
2022/03/27 00:43:22;;;;;;;14.57;7.03;;;8.60;68.50;;;;;;5056386;28;20017;-77
2022/03/27 00:45:47;;;;;;;16.08;6.75;;;8.60;68.40;;;;;;5056213;28;20416;-77
2022/03/27 00:48:18;;;;;;;18.10;7.00;;;8.70;69.10;;;;;;5073836;28;20024;-77
2022/03/27 00:50:44;;;;;;;18.75;6.80;;;8.60;68.90;;;;;;5056227;28;20020;-77
2022/03/27 00:53:10;;;;;;;15.90;7.10;;;8.70;68.80;;;;;;5073673;28;20024;-76
2022/03/27 00:55:36;;;;;;;18.00;7.03;;;8.70;69.20;;;;;;5056034;28;20512;-77
2022/03/27 00:58:03;;;;;;;19.60;6.85;;;8.60;70.00;;;;;;5073464;28;20507;-77
2022/03/27 01:00:37;;;;;;;16.23;6.75;;;8.70;70.40;;;;;;5056039;28;20016;-77
2022/03/27 01:03:07;;;;;;;15.43;6.78;;;8.70;70.30;;;;;;5073064;28;20334;-77
2022/03/27 01:05:33;;;;;;;16.40;6.47;;;8.80;69.50;;;;;;5056034;28;20035;-76
2022/03/27 01:08:04;;;;;;;20.15;6.95;;;8.70;69.80;;;;;;5055580;28;20036;-77
2022/03/27 01:10:29;;;;;;;19.95;6.95;;;8.70;70.20;;;;;;5073785;28;20021;-76
2022/03/27 01:12:56;;;;;;;21.50;7.90;;;8.70;70.90;;;;;;5055337;28;20070;-76
2022/03/27 01:15:24;;;;;;;20.98;7.35;;;8.60;70.80;;;;;;5055356;28;20024;-76
2022/03/27 01:17:50;;;;;;;21.20;8.07;;;8.60;71.00;;;;;;5055670;28;20020;-76
2022/03/27 01:20:29;;;;;;;17.27;7.80;;;8.60;70.70;;;;;;5054978;28;20090;-76
2022/03/27 01:22:55;;;;;;;18.92;7.43;;;8.60;71.80;;;;;;5073106;28;20028;-77
2022/03/27 01:25:21;;;;;;;19.20;6.97;;;8.50;71.50;;;;;;5073287;28;20334;-76
2022/03/27 01:27:47;;;;;;;18.13;7.03;;;8.60;71.60;;;;;;5073410;28;20082;-76
2022/03/27 01:30:12;;;;;;;17.60;6.82;;;8.60;71.80;;;;;;5055018;28;20449;-77
2022/03/27 01:32:38;;;;;;;18.40;7.13;;;8.50;71.60;;;;;;5055326;28;20128;-77
2022/03/27 01:35:05;;;;;;;20.63;6.93;;;8.50;72.10;;;;;;5072940;28;20033;-77
2022/03/27 01:37:30;;;;;;;17.90;7.53;;;8.60;72.10;;;;;;5073330;28;20024;-77
2022/03/27 01:39:56;;;;;;;15.60;6.68;;;8.60;72.00;;;;;;5054799;28;20369;-77
2022/03/27 01:42:22;;;;;;;15.82;6.47;;;8.70;71.50;;;;;;5055376;28;20365;-77
2022/03/27 01:44:48;;;;;;;23.92;7.35;;;8.70;71.60;;;;;;5073152;28;20025;-76
2022/03/27 01:47:13;;;;;;;16.55;6.65;;;8.70;71.80;;;;;;5055034;28;20124;-77
2022/03/27 01:49:40;;;;;;;19.30;6.68;;;8.70;71.90;;;;;;5055224;28;20074;-76
2022/03/27 01:52:06;;;;;;;18.42;6.65;;;8.70;72.10;;;;;;5054973;28;20483;-77
2022/03/27 01:54:33;;;;;;;16.33;6.88;;;8.70;72.10;;;;;;5073422;28;20091;-77
2022/03/27 01:56:58;;;;;;;15.10;6.03;;;8.70;72.40;;;;;;5054940;28;20052;-78
2022/03/27 01:59:24;;;;;;;19.75;6.50;;;8.60;73.10;;;;;;5055182;28;20029;-77
2022/03/27 02:01:50;;;;;;;20.05;7.15;;;8.60;73.40;;;;;;5055087;28;20035;-78
2022/03/27 02:04:16;;;;;;;18.15;7.38;;;8.60;74.00;;;;;;5054445;28;20024;-77
2022/03/27 02:06:43;;;;;;;15.32;6.80;;;8.40;74.60;;;;;;5072882;28;20166;-77
2022/03/27 02:09:12;;;;;;;16.83;7.35;;;8.30;75.50;;;;;;5072387;28;20052;-77
2022/03/27 02:11:40;;;;;;;18.73;6.00;;;8.10;75.90;;;;;;5054867;28;20021;-77
2022/03/27 02:14:05;;;;;;;17.52;6.57;;;8.10;76.50;;;;;;5055985;28;20028;-76
2022/03/27 02:16:31;;;;;;;16.75;7.88;;;8.00;76.90;;;;;;5058785;28;20484;-77
2022/03/27 02:18:57;;;;;;;20.00;7.55;;;7.90;77.50;;;;;;5076299;28;20369;-77
2022/03/27 02:21:22;;;;;;;12.90;6.25;;;7.80;79.20;;;;;;5076718;28;20017;-77
2022/03/27 02:23:48;;;;;;;16.17;6.78;;;7.70;79.70;;;;;;5076971;28;20056;-77
2022/03/27 02:26:14;;;;;;;16.75;7.15;;;7.60;81.80;;;;;;5076368;28;20028;-77
2022/03/27 02:28:40;;;;;;;16.67;6.85;;;7.50;82.20;;;;;;5059010;28;20455;-77
2022/03/27 02:31:06;;;;;;;17.00;7.15;;;7.50;83.40;;;;;;5058421;28;20023;-77
2022/03/27 02:33:32;;;;;;;24.00;6.85;;;7.50;84.00;;;;;;5058876;28;20056;-77
2022/03/27 02:35:57;;;;;;;21.90;8.13;;;7.50;84.70;;;;;;5076204;28;20067;-77
2022/03/27 02:38:25;;;;;;;16.88;7.35;;;7.40;84.60;;;;;;5058626;28;20044;-77
2022/03/27 02:40:50;;;;;;;17.45;7.03;;;7.50;84.50;;;;;;5076596;28;20149;-76
2022/03/27 02:43:16;;;;;;;15.05;6.88;;;7.50;84.90;;;;;;5058289;28;20124;-76
2022/03/27 02:45:42;;;;;;;17.52;7.38;;;7.50;85.60;;;;;;5076318;28;20401;-77
2022/03/27 02:48:08;;;;;;;15.93;7.03;;;7.60;85.50;;;;;;5058197;28;20024;-77
2022/03/27 02:50:36;;;;;;;18.40;7.55;;;7.50;85.90;;;;;;5058752;28;20035;-77
2022/03/27 02:53:03;;;;;;;21.63;8.88;;;7.50;86.70;;;;;;5058274;28;20016;-77
2022/03/27 02:55:28;;;;;;;17.13;7.32;;;7.50;86.70;;;;;;5058815;28;20052;-77
2022/03/27 02:57:54;;;;;;;17.02;7.40;;;7.40;87.40;;;;;;5058766;28;20063;-78
2022/03/27 03:00:21;;;;;;;21.38;7.72;;;7.50;87.90;;;;;;5076140;28;20023;-77
2022/03/27 03:02:46;;;;;;;15.93;6.78;;;7.50;88.10;;;;;;5058464;28;20028;-77
2022/03/27 03:05:12;;;;;;;18.33;6.93;;;7.50;88.00;;;;;;5057980;28;20032;-78
2022/03/27 03:07:42;;;;;;;16.15;7.07;;;7.50;88.70;;;;;;5058623;28;20510;-78
2022/03/27 03:10:09;;;;;;;19.20;7.45;;;7.50;88.90;;;;;;5057930;28;20020;-77
2022/03/27 03:12:34;;;;;;;17.90;7.05;;;7.50;89.50;;;;;;5058336;28;20037;-77
2022/03/27 03:15:00;;;;;;;15.60;6.93;;;7.40;89.60;;;;;;5057734;28;20021;-77
2022/03/27 03:17:26;;;;;;;17.60;7.38;;;7.40;89.40;;;;;;5076103;28;20094;-77
2022/03/27 03:19:52;;;;;;;14.45;7.18;;;7.40;89.60;;;;;;5057818;28;20048;-77
2022/03/27 03:22:18;;;;;;;18.02;6.78;;;7.40;89.80;;;;;;5057548;28;20565;-78
2022/03/27 03:24:44;;;;;;;17.88;7.60;;;7.30;90.30;;;;;;5058054;28;20111;-77
2022/03/27 03:27:10;;;;;;;16.95;7.15;;;7.30;90.30;;;;;;5074727;28;20432;-77
2022/03/27 03:29:35;;;;;;;23.08;8.00;;;7.30;90.40;;;;;;5075499;28;20373;-77
2022/03/27 03:32:01;;;;;;;19.80;7.38;;;7.30;90.70;;;;;;5075558;28;20507;-78
2022/03/27 03:34:27;;;;;;;18.20;7.32;;;7.30;90.60;;;;;;5058084;28;20490;-77
2022/03/27 03:36:52;;;;;;;17.30;7.85;;;7.20;91.10;;;;;;5075648;28;20033;-77
2022/03/27 03:39:18;;;;;;;16.15;7.65;;;7.10;91.30;;;;;;5057267;28;20472;-77
2022/03/27 03:41:44;;;;;;;19.70;7.90;;;7.20;91.20;;;;;;5057619;28;20024;-77
2022/03/27 03:44:10;;;;;;;22.60;9.02;;;7.10;91.30;;;;;;5075081;28;20027;-76
2022/03/27 03:46:35;;;;;;;18.77;7.93;;;7.10;91.80;;;;;;5075393;28;20017;-77
2022/03/27 03:49:01;;;;;;;17.27;7.30;;;7.00;92.30;;;;;;5056917;28;20423;-78
2022/03/27 03:51:27;;;;;;;18.07;7.80;;;7.10;92.40;;;;;;5075401;28;20179;-77
2022/03/27 03:53:52;;;;;;;21.85;7.78;;;7.10;92.60;;;;;;5075549;28;20361;-78
2022/03/27 03:56:18;;;;;;;18.50;7.15;;;7.10;92.40;;;;;;5075085;28;20020;-77
2022/03/27 03:58:44;;;;;;;17.65;7.65;;;7.10;92.50;;;;;;5057479;28;20024;-77
2022/03/27 04:01:09;;;;;;;20.45;7.40;;;7.10;92.30;;;;;;5057217;28;20021;-77
2022/03/27 04:03:35;;;;;;;20.48;7.70;;;7.10;92.70;;;;;;5057033;28;20369;-78
2022/03/27 04:06:00;;;;;;;24.03;8.27;;;7.10;92.90;;;;;;5057367;28;20020;-89
2022/03/27 04:08:26;;;;;;;21.48;8.15;;;7.10;93.30;;;;;;5057542;28;20123;-77
2022/03/27 04:10:52;;;;;;;18.33;8.43;;;7.10;93.30;;;;;;5075112;28;20442;-77
2022/03/27 04:13:18;;;;;;;19.42;7.97;;;7.10;93.40;;;;;;5056844;28;20513;-77
2022/03/27 04:15:43;;;;;;;20.20;7.57;;;7.10;93.20;;;;;;5074897;28;20020;-77
2022/03/27 04:18:09;;;;;;;27.83;8.55;;;7.10;93.30;;;;;;5056545;28;20020;-77
2022/03/27 04:20:34;;;;;;;17.10;8.07;;;7.10;93.60;;;;;;5056727;28;20040;-77
2022/03/27 04:23:01;;;;;;;16.63;6.78;;;7.10;93.60;;;;;;5057031;28;20020;-77
2022/03/27 04:25:27;;;;;;;19.25;7.38;;;7.10;93.50;;;;;;5074412;28;20477;-77
2022/03/27 04:27:52;;;;;;;20.15;7.55;;;7.10;93.60;;;;;;5056895;28;20059;-76
2022/03/27 04:30:18;;;;;;;16.75;8.02;;;7.00;93.90;;;;;;5074201;28;20054;-77
2022/03/27 04:32:44;;;;;;;22.20;8.93;;;7.00;94.00;;;;;;5073937;28;20029;-77
2022/03/27 04:35:10;;;;;;;16.90;7.60;;;7.00;94.30;;;;;;5073389;28;20020;-76
2022/03/27 04:37:44;;;;;;;17.70;7.47;;;7.10;94.50;;;;;;5054864;28;20020;-76
2022/03/27 04:40:13;;;;;;;18.73;7.97;;;7.00;94.90;;;;;;5073016;28;20024;-76
2022/03/27 04:42:40;;;;;;;20.67;7.53;;;7.10;94.80;;;;;;5073852;28;20027;-76
2022/03/27 04:45:06;;;;;;;18.85;7.55;;;7.10;94.60;;;;;;5055540;28;20089;-76
2022/03/27 04:47:32;;;;;;;19.38;7.95;;;7.10;94.30;;;;;;5055758;28;20027;-76
2022/03/27 04:49:57;;;;;;;20.07;8.50;;;7.10;94.30;;;;;;5074275;28;20025;-77
2022/03/27 04:52:23;;;;;;;18.73;7.90;;;7.10;94.40;;;;;;5055732;28;20029;-77
2022/03/27 04:54:49;;;;;;;16.33;7.90;;;6.90;94.70;;;;;;5055984;28;20032;-77
2022/03/27 04:57:15;;;;;;;15.43;7.88;;;7.00;94.90;;;;;;5073465;28;20016;-77
2022/03/27 04:59:41;;;;;;;22.58;7.57;;;7.00;95.00;;;;;;5055297;28;20024;-77
2022/03/27 05:02:07;;;;;;;16.80;7.70;;;7.00;94.90;;;;;;5054815;28;20115;-77
2022/03/27 05:04:33;;;;;;;17.88;7.60;;;7.00;95.00;;;;;;5055288;28;20055;-77
2022/03/27 05:06:58;;;;;;;23.33;8.83;;;7.00;94.90;;;;;;5073428;28;20024;-77
2022/03/27 05:09:24;;;;;;;18.77;7.73;;;6.90;95.10;;;;;;5073239;28;20228;-77
2022/03/27 05:11:49;;;;;;;23.67;8.53;;;7.00;95.20;;;;;;5055895;28;20511;-77
2022/03/27 05:14:15;;;;;;;18.43;7.97;;;6.90;95.50;;;;;;5073318;28;20373;-77
2022/03/27 05:16:41;;;;;;;21.00;8.85;;;6.80;95.90;;;;;;5073828;28;20028;-77
2022/03/27 05:19:07;;;;;;;21.63;8.90;;;6.80;95.80;;;;;;5073221;28;20071;-78
2022/03/27 05:21:33;;;;;;;22.23;7.97;;;6.70;95.80;;;;;;5056097;28;20365;-76
2022/03/27 05:23:59;;;;;;;17.13;7.77;;;6.60;96.40;;;;;;5073301;28;20024;-77
2022/03/27 05:26:26;;;;;;;16.83;7.93;;;6.60;96.20;;;;;;5073007;28;20558;-76
2022/03/27 05:28:52;;;;;;;19.27;7.73;;;6.70;96.30;;;;;;5055497;28;20024;-76
2022/03/27 05:31:18;;;;;;;17.60;7.97;;;6.70;96.60;;;;;;5072756;28;20384;-77
2022/03/27 05:33:43;;;;;;;18.50;7.60;;;6.70;96.60;;;;;;5073415;28;20028;-77
2022/03/27 05:36:10;;;;;;;18.43;7.50;;;6.70;96.80;;;;;;5055235;28;20028;-76
2022/03/27 05:38:40;;;;;;;21.03;7.93;;;6.70;96.70;;;;;;5055528;28;20468;-77
2022/03/27 05:41:07;;;;;;;22.77;7.37;;;6.80;96.70;;;;;;5055653;28;20449;-77
2022/03/27 05:43:34;;;;;;;18.63;7.63;;;6.80;96.60;;;;;;5073344;28;20067;-77
2022/03/27 05:45:59;;;;;;;17.93;7.73;;;6.80;96.60;;;;;;5073086;28;20074;-77
2022/03/27 05:48:25;;;;;;;17.53;7.97;;;6.80;96.60;;;;;;5072357;28;20103;-77
2022/03/27 05:50:51;;;;;;;17.87;7.73;;;6.80;96.40;;;;;;5055518;28;20016;-76
2022/03/27 05:53:17;;;;;;;16.67;7.97;;;6.80;96.30;;;;;;5072526;28;20024;-77
2022/03/27 05:55:42;;;;;;;17.73;7.70;;;6.80;96.60;;;;;;5073158;28;20025;-76
2022/03/27 05:58:08;;;;;;;17.33;8.30;;;6.90;96.60;;;;;;5072618;28;20039;-77
2022/03/27 06:00:34;;;;;;;18.17;7.80;;;6.90;97.00;;;;;;5055232;28;20017;-77
2022/03/27 06:03:00;;;;;;;17.33;7.27;;;6.90;97.00;;;;;;5073159;28;20088;-77
2022/03/27 06:05:26;;;;;;;20.03;8.23;;;6.90;97.20;;;;;;5054841;28;20442;-77
2022/03/27 06:07:54;;;;;;;17.83;7.20;;;6.90;97.40;;;;;;5073346;28;20112;-77
2022/03/27 06:10:22;;;;;;;19.80;7.90;;;6.90;97.10;;;;;;5072840;28;20028;-78
2022/03/27 06:12:49;;;;;;;17.40;7.80;;;6.90;97.20;;;;;;5073153;28;20477;-77
2022/03/27 06:15:15;;;;;;;17.30;7.57;;;6.90;96.90;;;;;;5072343;28;20066;-77
2022/03/27 06:17:45;;;;;;;18.50;7.77;;;7.00;97.10;;;;;;5055234;28;20027;-77
2022/03/27 06:20:16;;;;;;;17.83;7.27;;;7.00;97.20;;;;;;5054369;28;20493;-77
2022/03/27 06:22:44;;;;;;;16.17;7.87;;;7.00;97.40;;;;;;5055278;28;20024;-77
2022/03/27 06:25:11;;;;;;;18.27;7.90;;;7.00;97.30;;;;;;5071615;28;20017;-79
2022/03/27 06:27:37;;;;;;;19.70;7.77;;;7.10;97.20;;;;;;5071881;28;20028;-77
2022/03/27 06:30:08;;;;;;;19.13;7.80;;;7.10;97.50;;;;;;5071690;28;20103;-76
2022/03/27 06:32:36;;;;;;;16.13;6.93;;;7.20;97.70;;;;;;5072476;28;20051;-77
2022/03/27 06:35:02;;;;;;;18.87;8.20;;;7.20;97.50;;;;;;5071578;28;20262;-77
2022/03/27 06:37:28;;;;;;;18.07;7.60;;;7.30;97.60;;;;;;5071332;28;20024;-77
2022/03/27 06:39:54;;;;;;;16.50;8.03;;;7.30;98.00;;;;;;5072881;28;20028;-75
2022/03/27 06:42:21;;;;;;;20.00;7.75;;;7.40;97.40;;;;;;5070958;28;20031;-75
2022/03/27 06:44:47;;;;;;;18.10;7.90;;;7.50;97.80;;;;;;5072672;28;20099;-75
2022/03/27 06:47:13;;;;;;;14.53;7.50;;;7.60;98.30;;;;;;5073897;28;20032;-76
2022/03/27 06:49:40;;;;;;;16.70;7.28;;;7.60;98.00;;;;;;5076461;28;20105;-75
2022/03/27 06:52:06;;;;;;;15.52;7.10;;;7.60;97.80;;;;;;5074190;28;20021;-75
2022/03/27 06:54:33;;;;;;;14.52;7.55;;;7.70;97.80;;;;;;5075043;28;20021;-76
2022/03/27 06:56:59;;;;;;;15.15;7.25;;;7.80;97.50;;;;;;5072253;28;20082;-75
2022/03/27 06:59:25;;;;;;;19.50;7.25;;;7.90;97.30;;;;;;5072583;28;20028;-75
2022/03/27 07:04:34;;;;;;;17.35;7.20;;;8.10;96.50;;;;;;5077635;28;20457;-74
2022/03/27 07:07:00;;;;;;;17.40;6.72;;;8.30;96.50;;;;;;5076537;28;20107;-76
2022/03/27 07:09:26;;;;;;;15.05;6.80;;;8.30;96.10;;;;;;5074786;28;20115;-76
2022/03/27 07:11:52;;;;;;;13.98;6.60;;;8.40;96.60;;;;;;5076525;28;20100;-75
2022/03/27 07:14:18;;;;;;;18.25;7.00;;;8.50;96.40;;;;;;5076168;28;20159;-76
2022/03/27 07:16:43;;;;;;;18.65;7.75;;;8.50;96.30;;;;;;5076178;28;20029;-75
2022/03/27 07:19:10;;;;;;;14.57;6.60;;;8.60;96.70;;;;;;5076101;28;20074;-76
2022/03/27 07:21:39;;;;;;;16.48;6.88;;;8.70;96.50;;;;;;5076419;28;20111;-76
2022/03/27 07:24:05;;;;;;;17.33;7.80;;;8.70;96.50;;;;;;5074493;28;20016;-75
2022/03/27 07:26:31;;;;;;;13.23;6.55;;;8.80;96.60;;;;;;5073827;28;20066;-76
2022/03/27 07:28:57;;;;;;;17.35;7.53;;;8.80;97.00;;;;;;5074411;28;20457;-75
2022/03/27 07:31:23;;;;;;;17.88;7.00;;;8.90;96.80;;;;;;5075359;28;20055;-76
2022/03/27 07:33:50;;;;;;;18.63;7.40;;;9.00;96.50;;;;;;5059654;28;20078;-76
2022/03/27 07:36:16;;;;;;;18.02;7.05;;;9.10;96.40;;;;;;5075177;28;20025;-76
2022/03/27 07:38:42;;;;;;;13.63;6.90;;;9.20;96.30;;;;;;5057820;28;20025;-76
2022/03/27 07:41:07;;;;;;;18.65;6.85;;;9.20;96.40;;;;;;5057224;28;20412;-77
2022/03/27 07:43:33;;;;;;;17.55;7.63;;;9.30;96.00;;;;;;5057259;28;20417;-77
2022/03/27 07:45:59;;;;;;;15.27;6.78;;;9.40;95.60;;;;;;5074838;28;20527;-77
2022/03/27 07:48:26;;;;;;;11.35;6.35;;;9.50;95.40;;;;;;5056929;28;20031;-77
2022/03/27 07:50:56;;;;;;;18.98;7.72;;;9.70;94.00;;;;;;5057122;28;20028;-76
2022/03/27 07:53:22;;;;;;;18.00;7.68;;;9.70;93.50;;;;;;5056635;28;20020;-76
2022/03/27 07:55:48;;;;;;;18.33;8.15;;;9.80;93.10;;;;;;5057041;28;20373;-76
2022/03/27 07:58:14;;;;;;;17.70;7.05;;;9.90;93.30;;;;;;5074884;28;20126;-88
2022/03/27 08:00:40;;;;;;;17.65;7.63;;;9.90;93.20;;;;;;5074938;28;20473;-76
2022/03/27 08:03:08;;;;;;;20.33;7.85;;;10.00;93.30;;;;;;5056945;28;20442;-76
2022/03/27 08:05:33;;;;;;;18.42;8.52;;;10.00;93.60;;;;;;5074416;28;20029;-76
2022/03/27 08:07:59;;;;;;;35.42;17.70;;;10.10;93.90;;;;;;5057019;28;20403;-77
2022/03/27 08:10:25;;;;;;;21.55;9.27;;;10.20;93.90;;;;;;5073919;28;20028;-77
2022/03/27 08:12:51;;;;;;;17.00;7.82;;;10.20;93.10;;;;;;5056319;28;20035;-75
2022/03/27 08:15:17;;;;;;;15.45;7.40;;;10.30;93.30;;;;;;5073641;28;20457;-77
2022/03/27 08:17:43;;;;;;;16.48;7.80;;;10.40;92.90;;;;;;5056392;28;20027;-75
2022/03/27 08:20:10;;;;;;;22.67;7.35;;;10.50;93.20;;;;;;5073873;28;20436;-75
2022/03/27 08:22:36;;;;;;;15.30;7.38;;;10.50;93.00;;;;;;5073614;28;20016;-75
2022/03/27 08:25:02;;;;;;;18.42;7.68;;;10.50;92.30;;;;;;5055989;28;20346;-76
2022/03/27 08:27:31;;;;;;;15.52;7.55;;;10.60;92.40;;;;;;5073540;28;20025;-76
2022/03/27 08:29:57;;;;;;;16.58;6.80;;;10.70;92.70;;;;;;5074133;28;20021;-75
2022/03/27 08:32:23;;;;;;;19.02;7.22;;;10.70;92.80;;;;;;5073494;28;20484;-75
2022/03/27 08:34:48;;;;;;;19.15;7.93;;;10.80;92.30;;;;;;5055816;28;20020;-75
2022/03/27 08:37:16;;;;;;;14.00;6.88;;;10.90;92.60;;;;;;5055679;28;20407;-77
2022/03/27 08:39:44;;;;;;;16.52;7.90;;;10.90;92.00;;;;;;5074196;28;20050;-76
2022/03/27 08:42:12;;;;;;;16.73;7.75;;;11.00;91.90;;;;;;5056218;28;20035;-75
2022/03/27 08:44:38;;;;;;;15.48;7.53;;;11.10;92.60;;;;;;5073427;28;20020;-76
2022/03/27 08:47:24;;;;;;;17.95;7.53;;;11.30;92.00;;;;;;5073815;28;20028;-77
2022/03/27 08:50:11;;;;;;;18.00;7.82;;;11.30;91.20;;;;;;5056236;28;20020;-77
2022/03/27 08:52:42;;;;;;;18.90;7.20;;;11.30;90.80;;;;;;5073301;28;20481;-75
2022/03/27 08:55:20;;;;;;;18.55;7.40;;;11.20;90.80;;;;;;5055290;28;20020;-76
2022/03/27 08:57:55;;;;;;;21.02;7.68;;;11.30;90.70;;;;;;5072253;28;20020;-77
2022/03/27 09:00:40;;;;;;;19.08;7.45;;;11.30;90.50;;;;;;5053159;28;20104;-77
2022/03/27 09:03:07;;;;;;;17.13;7.55;;;11.40;90.60;;;;;;5054141;28;20024;-77
2022/03/27 09:05:35;;;;;;;18.75;7.00;;;11.50;90.20;;;;;;5071078;28;20458;-76
2022/03/27 09:08:05;;;;;;;18.17;6.90;;;11.50;90.40;;;;;;5055066;28;20484;-81
2022/03/27 09:10:31;;;;;;;16.25;7.18;;;11.60;89.80;;;;;;5064019;28;20453;-79
2022/03/27 09:12:57;;;;;;;17.15;7.07;;;11.80;88.70;;;;;;5080897;28;20031;-79
2022/03/27 09:15:23;;;;;;;18.00;7.43;;;11.80;87.10;;;;;;5069771;28;20024;-80
2022/03/27 09:18:08;;;;;;;19.88;7.13;;;11.90;87.00;;;;;;5056587;28;20472;-82
2022/03/27 09:20:34;;;;;;;16.02;7.00;;;12.00;85.50;;;;;;5045808;28;20100;-80
2022/03/27 09:23:21;;;;;;;21.38;6.72;;;12.20;85.60;;;;;;5047997;28;20102;-79
2022/03/27 09:25:56;;;;;;;19.00;7.00;;;12.40;84.20;;;;;;5050824;28;20033;-80
2022/03/27 09:28:28;;;;;;;16.13;6.90;;;12.60;84.60;;;;;;5047236;28;20029;-80
2022/03/27 09:30:56;;;;;;;19.52;6.47;;;12.70;83.10;;;;;;5052572;28;20013;-80
2022/03/27 09:33:37;;;;;;;16.13;7.40;;;12.80;80.70;;;;;;5053763;28;20493;-85
2022/03/27 09:36:04;;;;;;;15.70;7.10;;;12.80;79.80;;;;;;5052571;28;20029;-80
2022/03/27 09:38:30;;;;;;;14.70;7.10;;;12.90;82.00;;;;;;5055219;28;20499;-80
2022/03/27 09:40:55;;;;;;;14.55;6.82;;;13.00;79.80;;;;;;5055552;28;20013;-79
2022/03/27 09:43:22;;;;;;;21.42;6.90;;;13.10;82.50;;;;;;5051431;28;20112;-80
2022/03/27 09:46:02;;;;;;;14.52;6.93;;;13.10;81.80;;;;;;5056144;28;20020;-79
2022/03/27 09:48:29;;;;;;;16.23;7.45;;;13.10;80.60;;;;;;5056769;28;20025;-77
2022/03/27 09:50:58;;;;;;;15.35;6.65;;;13.00;80.60;;;;;;5050917;28;20060;-78
2022/03/27 09:53:26;;;;;;;11.77;6.38;;;13.20;80.60;;;;;;5067421;28;20027;-79
2022/03/27 09:56:12;;;;;;;13.02;6.75;;;13.30;80.80;;;;;;5057456;28;20025;-82
2022/03/27 09:58:38;;;;;;;14.80;6.38;;;13.30;77.90;;;;;;5062063;28;20471;-77
2022/03/27 10:01:24;;;;;;;15.93;7.15;;;13.30;80.20;;;;;;5059510;28;20025;-77
2022/03/27 10:04:14;;;;;;;12.20;6.13;;;13.50;77.10;;;;;;5041435;28;20036;-78
2022/03/27 10:06:41;;;;;;;18.00;6.25;;;13.60;77.50;;;;;;5065320;28;20506;-79
2022/03/27 10:09:12;;;;;;;13.50;6.63;;;13.60;77.80;;;;;;5051497;28;20123;-77
2022/03/27 10:11:41;;;;;;;14.32;7.15;;;13.70;79.40;;;;;;5068467;28;20048;-77
2022/03/27 10:14:08;;;;;;;15.43;6.60;;;13.60;76.90;;;;;;5057828;28;20021;-80
2022/03/27 10:16:36;;;;;;;18.13;7.07;;;13.70;77.20;;;;;;5061647;28;20024;-76
2022/03/27 10:19:08;;;;;;;15.75;6.45;;;13.70;77.00;;;;;;5068404;28;20020;-77
2022/03/27 10:21:36;;;;;;;19.85;6.82;;;13.90;78.90;;;;;;5057068;28;20479;-75
2022/03/27 10:24:13;;;;;;;15.25;6.50;;;14.00;77.60;;;;;;5086016;28;20031;-79
2022/03/27 10:26:40;;;;;;;12.85;6.38;;;14.20;77.40;;;;;;5053870;28;20035;-78
2022/03/27 10:29:07;;;;;;;14.65;6.90;;;14.30;74.90;;;;;;5068949;28;20031;-78
2022/03/27 10:31:33;;;;;;;17.77;7.50;;;14.50;77.60;;;;;;5073925;28;20020;-78
2022/03/27 10:34:01;;;;;;;15.07;7.20;;;14.40;75.60;;;;;;5061183;28;20028;-78
2022/03/27 10:36:29;;;;;;;13.00;6.80;;;14.40;72.60;;;;;;5068115;28;20369;-79
2022/03/27 10:39:20;;;;;;;16.85;6.95;;;14.60;74.90;;;;;;5063618;28;20025;-80
2022/03/27 10:41:57;;;;;;;15.73;7.25;;;14.60;72.50;;;;;;5056785;28;20020;-78
2022/03/27 10:44:40;;;;;;;15.55;6.97;;;14.80;70.90;;;;;;5058768;28;20024;-79
2022/03/27 10:47:17;;;;;;;17.17;7.03;;;14.90;69.10;;;;;;5072543;28;20133;-78
2022/03/27 10:50:05;;;;;;;16.88;7.22;;;15.00;68.00;;;;;;5078627;28;20065;-78
2022/03/27 10:52:36;;;;;;;15.05;7.32;;;15.10;65.60;;;;;;5067622;28;20048;-78
2022/03/27 10:55:09;;;;;;;16.77;8.05;;;15.20;65.70;;;;;;5090628;28;20016;-80
2022/03/27 10:57:45;;;;;;;18.45;7.05;;;15.20;65.80;;;;;;5060940;28;20026;-78
2022/03/27 11:00:12;;;;;;;13.95;7.00;;;15.30;69.40;;;;;;5070328;28;20023;-78
2022/03/27 11:02:47;;;;;;;15.00;7.20;;;15.30;67.50;;;;;;5067966;28;20085;-78
2022/03/27 11:05:35;;;;;;;14.32;7.45;;;15.20;66.60;;;;;;5060250;28;20024;-82
2022/03/27 11:08:18;;;;;;;15.55;7.10;;;15.20;66.60;;;;;;5049057;28;20061;-79
2022/03/27 11:10:59;;;;;;;15.02;6.93;;;15.50;68.50;;;;;;5077749;28;20020;-81
2022/03/27 11:13:28;;;;;;;16.98;7.30;;;15.40;67.00;;;;;;5060934;28;20162;-79
2022/03/27 11:16:05;;;;;;;20.35;7.15;;;15.50;65.90;;;;;;5073253;28;20024;-79
2022/03/27 11:18:40;;;;;;;16.35;7.05;;;15.60;67.00;;;;;;5067252;28;20024;-79
2022/03/27 11:21:07;;;;;;;14.20;6.75;;;15.80;67.00;;;;;;5090422;28;20080;-78
2022/03/27 11:23:51;;;;;;;15.55;6.68;;;15.80;66.90;;;;;;5058976;28;20028;-78
2022/03/27 11:26:19;;;;;;;21.35;7.10;;;15.80;64.00;;;;;;5064936;28;20077;-78
2022/03/27 11:28:48;;;;;;;15.27;6.65;;;16.00;64.20;;;;;;5083273;28;20032;-78
2022/03/27 11:31:16;;;;;;;16.42;6.05;;;15.90;63.40;;;;;;5073324;28;20414;-79
2022/03/27 11:33:42;;;;;;;16.48;7.53;;;16.00;62.10;;;;;;5057579;28;20088;-78
2022/03/27 11:36:11;;;;;;;16.63;6.40;;;16.10;63.30;;;;;;5072159;28;20035;-81
2022/03/27 11:38:52;;;;;;;16.38;6.53;;;16.20;64.70;;;;;;5055234;28;20032;-83
2022/03/27 11:41:26;;;;;;;14.52;6.65;;;16.40;65.20;;;;;;5058100;28;20103;-79
2022/03/27 11:43:53;;;;;;;16.77;7.57;;;16.40;63.20;;;;;;5078844;28;20024;-79
2022/03/27 11:46:27;;;;;;;19.77;7.03;;;16.60;64.60;;;;;;5059078;28;20035;-82
2022/03/27 11:48:58;;;;;;;12.50;6.40;;;16.70;60.50;;;;;;5083405;28;20027;-79
2022/03/27 11:51:24;;;;;;;15.55;6.07;;;16.80;61.10;;;;;;5062709;28;20078;-79
2022/03/27 11:53:51;;;;;;;14.82;5.85;;;16.90;60.50;;;;;;5054283;28;20362;-82
2022/03/27 11:56:17;;;;;;;15.35;6.00;;;16.90;59.60;;;;;;5077525;28;20016;-79
2022/03/27 11:58:43;;;;;;;13.52;6.35;;;17.00;58.00;;;;;;5075856;28;20029;-79
2022/03/27 12:01:09;;;;;;;16.83;6.30;;;16.90;58.20;;;;;;5075255;28;20217;-80
2022/03/27 12:03:39;;;;;;;14.38;6.15;;;17.00;60.00;;;;;;5053834;28;20059;-80
2022/03/27 12:06:06;;;;;;;13.55;6.07;;;17.00;60.30;;;;;;5054413;28;20350;-80
2022/03/27 12:08:38;;;;;;;16.63;6.57;;;17.20;58.80;;;;;;5057956;28;20028;-79
2022/03/27 12:11:06;;;;;;;15.00;6.22;;;17.40;58.10;;;;;;5055614;28;20389;-78
2022/03/27 12:13:39;;;;;;;12.77;6.32;;;17.30;58.00;;;;;;5054749;28;20029;-80
2022/03/27 12:16:05;;;;;;;16.67;6.30;;;17.50;58.70;;;;;;5055265;28;20028;-81
2022/03/27 12:18:35;;;;;;;14.20;5.65;;;17.70;56.40;;;;;;5078954;28;20356;-82
2022/03/27 12:21:04;;;;;;;17.23;6.20;;;17.90;53.40;;;;;;5067775;28;20056;-82
2022/03/27 12:23:36;;;;;;;15.43;5.90;;;18.20;54.10;;;;;;5065609;28;20020;-80
2022/03/27 12:32:15;;;;;;;14.77;6.18;;;18.80;53.40;;;;;;5082370;28;20518;-82
2022/03/27 12:34:53;;;;;;;11.88;5.82;;;18.90;51.70;;;;;;5059080;28;20475;-81
2022/03/27 12:37:20;;;;;;;14.82;5.75;;;19.00;51.50;;;;;;5053826;28;20548;-79
2022/03/27 12:39:49;;;;;;;16.17;5.95;;;19.30;52.80;;;;;;5056243;28;20051;-82
2022/03/27 12:42:32;;;;;;;14.98;6.55;;;19.60;51.50;;;;;;5058838;28;20037;-79
2022/03/27 12:45:13;;;;;;;14.25;6.43;;;19.80;50.20;;;;;;5058660;28;20054;-83
2022/03/27 12:47:46;;;;;;;13.53;5.83;;;20.00;49.70;;;;;;5079211;28;20033;-81
2022/03/27 12:50:29;;;;;;;13.07;6.10;;;20.20;49.40;;;;;;5060747;28;20021;-81
2022/03/27 12:52:57;;;;;;;13.75;6.53;;;20.40;49.60;;;;;;5076710;28;20016;-82
2022/03/27 12:55:26;;;;;;;13.85;5.90;;;20.60;49.60;;;;;;5076023;28;20035;-88
2022/03/27 12:58:01;;;;;;;13.27;5.78;;;20.80;48.40;;;;;;5055449;28;20032;-88